Time,TemperatureF,DewpointF,PressureIn,WindDirection,WindDirectionDegrees,WindSpeedMPH,WindSpeedGustMPH,Humidity,HourlyPrecipIn,Conditions,Clouds,dailyrainin,SolarRadiationWatts/m^2,SoftwareType,DateUTC
2013-07-05 00:01:00,72.0,59.0,-100.00,SSE,162,4.0,8.0,63,0.00,,,0.00,0.000000,,2013-07-05 05:01:00,
2013-07-05 00:33:00,74.0,57.0,-100.00,South,181,7.0,13.0,55,0.00,,,0.00,0.000000,,2013-07-05 05:33:00,
2013-07-05 00:43:00,74.0,57.0,-100.00,South,181,7.0,13.0,55,0.00,,,0.00,0.000000,,2013-07-05 05:43:00,
2013-07-05 00:52:00,74.0,57.0,-100.00,South,181,7.0,13.0,55,0.00,,,0.00,0.000000,,2013-07-05 05:52:00,
2013-07-05 01:02:00,74.0,57.0,-100.00,South,181,7.0,13.0,55,0.00,,,0.00,0.000000,,2013-07-05 06:02:00,
2013-07-05 01:34:00,73.0,57.0,-100.00,South,186,8.0,14.0,57,0.00,,,0.00,0.000000,,2013-07-05 06:34:00,
2013-07-05 01:44:00,73.0,57.0,-100.00,South,186,8.0,14.0,57,0.00,,,0.00,0.000000,,2013-07-05 06:44:00,
2013-07-05 01:53:00,73.0,57.0,-100.00,South,186,8.0,14.0,57,0.00,,,0.00,0.000000,,2013-07-05 06:53:00,
2013-07-05 02:02:00,73.0,57.0,-100.00,South,186,8.0,14.0,57,0.00,,,0.00,0.000000,,2013-07-05 07:02:00,
2013-07-05 02:34:00,72.0,57.0,-100.00,South,182,8.0,14.0,60,0.00,,,0.00,0.000000,,2013-07-05 07:34:00,
2013-07-05 02:43:00,72.0,57.0,-100.00,South,182,8.0,14.0,60,0.00,,,0.00,0.000000,,2013-07-05 07:43:00,
2013-07-05 02:53:00,72.0,57.0,-100.00,South,182,8.0,14.0,60,0.00,,,0.00,0.000000,,2013-07-05 07:53:00,
2013-07-05 03:02:00,72.0,57.0,-100.00,South,182,8.0,14.0,60,0.00,,,0.00,0.000000,,2013-07-05 08:02:00,
2013-07-05 03:06:00,71.0,57.0,-100.00,SSW,192,9.0,15.0,61,0.00,,,0.00,0.000000,,2013-07-05 08:06:00,
2013-07-05 03:33:00,71.0,57.0,-100.00,SSW,192,9.0,15.0,61,0.00,,,0.00,0.000000,,2013-07-05 08:33:00,
2013-07-05 03:44:00,71.0,57.0,-100.00,SSW,192,9.0,15.0,61,0.00,,,0.00,0.000000,,2013-07-05 08:44:00,
2013-07-05 03:57:00,71.0,57.0,-100.00,SSW,192,9.0,15.0,61,0.00,,,0.00,0.000000,,2013-07-05 08:57:00,
2013-07-05 04:06:00,70.0,57.0,-100.00,South,188,8.0,15.0,63,0.00,,,0.00,0.000000,,2013-07-05 09:06:00,
2013-07-05 04:37:00,70.0,57.0,-100.00,South,188,8.0,15.0,63,0.00,,,0.00,0.000000,,2013-07-05 09:37:00,
2013-07-05 04:48:00,70.0,57.0,-100.00,South,188,8.0,15.0,63,0.00,,,0.00,0.000000,,2013-07-05 09:48:00,
2013-07-05 04:56:00,70.0,57.0,-100.00,South,188,8.0,15.0,63,0.00,,,0.00,0.000000,,2013-07-05 09:56:00,
2013-07-05 05:06:00,68.0,56.0,-100.00,South,183,8.0,14.0,66,0.00,,,0.00,0.000000,,2013-07-05 10:06:00,
2013-07-05 05:38:00,68.0,56.0,-100.00,South,183,8.0,14.0,66,0.00,,,0.00,0.000000,,2013-07-05 10:38:00,
2013-07-05 05:47:00,68.0,56.0,-100.00,South,183,8.0,14.0,66,0.00,,,0.00,0.000000,,2013-07-05 10:47:00,
2013-07-05 06:06:00,67.0,56.0,-100.00,South,181,7.0,13.0,68,0.00,,,0.00,8.000000,,2013-07-05 11:06:00,
2013-07-05 06:38:00,67.0,56.0,-100.00,South,181,7.0,13.0,68,0.00,,,0.00,8.000000,,2013-07-05 11:38:00,
2013-07-05 06:50:00,67.0,56.0,-100.00,South,181,7.0,13.0,68,0.00,,,0.00,8.000000,,2013-07-05 11:50:00,
2013-07-05 07:00:00,67.0,56.0,-100.00,South,181,7.0,13.0,68,0.00,,,0.00,8.000000,,2013-07-05 12:00:00,
2013-07-05 07:38:00,69.0,57.0,-100.00,South,182,8.0,14.0,65,0.00,,,0.00,105.000000,,2013-07-05 12:38:00,
2013-07-05 07:50:00,69.0,57.0,-100.00,South,182,8.0,14.0,65,0.00,,,0.00,105.000000,,2013-07-05 12:50:00,
2013-07-05 08:00:00,69.0,57.0,-100.00,South,182,8.0,14.0,65,0.00,,,0.00,105.000000,,2013-07-05 13:00:00,
2013-07-05 08:05:00,69.0,57.0,-100.00,South,182,8.0,14.0,65,0.00,,,0.00,105.000000,,2013-07-05 13:05:00,
2013-07-05 08:06:00,71.0,59.0,-100.00,South,186,7.0,14.0,65,0.00,,,0.00,216.000000,,2013-07-05 13:06:00,
2013-07-05 08:39:00,71.0,59.0,-100.00,South,186,7.0,14.0,65,0.00,,,0.00,216.000000,,2013-07-05 13:39:00,
2013-07-05 08:49:00,71.0,59.0,-100.00,South,186,7.0,14.0,65,0.00,,,0.00,216.000000,,2013-07-05 13:49:00,
2013-07-05 08:58:00,71.0,59.0,-100.00,South,186,7.0,14.0,65,0.00,,,0.00,216.000000,,2013-07-05 13:58:00,
2013-07-05 09:06:00,73.0,59.0,-100.00,South,190,8.0,15.0,62,0.00,,,0.00,393.000000,,2013-07-05 14:06:00,
2013-07-05 09:39:00,73.0,59.0,-100.00,South,190,8.0,15.0,62,0.00,,,0.00,393.000000,,2013-07-05 14:39:00,
2013-07-05 09:47:00,73.0,59.0,-100.00,South,190,8.0,15.0,62,0.00,,,0.00,393.000000,,2013-07-05 14:47:00,
2013-07-05 09:57:00,73.0,59.0,-100.00,South,190,8.0,15.0,62,0.00,,,0.00,393.000000,,2013-07-05 14:57:00,
2013-07-05 10:34:00,76.0,59.0,-100.00,South,187,9.0,15.0,56,0.00,,,0.00,570.000000,,2013-07-05 15:34:00,
2013-07-05 10:43:00,76.0,59.0,-100.00,South,187,9.0,15.0,56,0.00,,,0.00,570.000000,,2013-07-05 15:43:00,
2013-07-05 10:53:00,76.0,59.0,-100.00,South,187,9.0,15.0,56,0.00,,,0.00,570.000000,,2013-07-05 15:53:00,
2013-07-05 11:02:00,76.0,59.0,-100.00,South,187,9.0,15.0,56,0.00,,,0.00,570.000000,,2013-07-05 16:02:00,
2013-07-05 11:33:00,79.0,61.0,-100.00,South,184,10.0,18.0,54,0.00,,,0.00,837.000000,,2013-07-05 16:33:00,
2013-07-05 11:44:00,79.0,61.0,-100.00,South,184,10.0,18.0,54,0.00,,,0.00,837.000000,,2013-07-05 16:44:00,
2013-07-05 11:53:00,79.0,61.0,-100.00,South,184,10.0,18.0,54,0.00,,,0.00,837.000000,,2013-07-05 16:53:00,
2013-07-05 12:02:00,79.0,61.0,-100.00,South,184,10.0,18.0,54,0.00,,,0.00,837.000000,,2013-07-05 17:02:00,
2013-07-05 12:33:00,80.0,61.0,-100.00,South,178,8.0,15.0,53,0.00,,,0.00,798.000000,,2013-07-05 17:33:00,
2013-07-05 12:43:00,80.0,61.0,-100.00,South,178,8.0,15.0,53,0.00,,,0.00,798.000000,,2013-07-05 17:43:00,
2013-07-05 12:53:00,80.0,61.0,-100.00,South,178,8.0,15.0,53,0.00,,,0.00,798.000000,,2013-07-05 17:53:00,
2013-07-05 13:01:00,80.0,61.0,-100.00,South,178,8.0,15.0,53,0.00,,,0.00,798.000000,,2013-07-05 18:01:00,
2013-07-05 13:33:00,83.0,61.0,-100.00,South,182,11.0,18.0,48,0.00,,,0.00,1041.000000,,2013-07-05 18:33:00,
2013-07-05 13:43:00,83.0,61.0,-100.00,South,182,11.0,18.0,48,0.00,,,0.00,1041.000000,,2013-07-05 18:43:00,
2013-07-05 13:53:00,83.0,61.0,-100.00,South,182,11.0,18.0,48,0.00,,,0.00,1041.000000,,2013-07-05 18:53:00,
2013-07-05 14:01:00,83.0,61.0,-100.00,South,182,11.0,18.0,48,0.00,,,0.00,1041.000000,,2013-07-05 19:01:00,
2013-07-05 14:34:00,85.0,62.0,-100.00,SSW,198,9.0,18.0,47,0.00,,,0.00,1040.000000,,2013-07-05 19:34:00,
2013-07-05 14:43:00,85.0,62.0,-100.00,SSW,198,9.0,18.0,47,0.00,,,0.00,1040.000000,,2013-07-05 19:43:00,
2013-07-05 14:53:00,85.0,62.0,-100.00,SSW,198,9.0,18.0,47,0.00,,,0.00,1040.000000,,2013-07-05 19:53:00,
2013-07-05 15:02:00,85.0,62.0,-100.00,SSW,198,9.0,18.0,47,0.00,,,0.00,1040.000000,,2013-07-05 20:02:00,
2013-07-05 15:33:00,84.0,63.0,-100.00,SSW,198,7.0,18.0,49,0.00,,,0.00,888.000000,,2013-07-05 20:33:00,
2013-07-05 15:43:00,84.0,63.0,-100.00,SSW,198,7.0,18.0,49,0.00,,,0.00,888.000000,,2013-07-05 20:43:00,
2013-07-05 15:53:00,84.0,63.0,-100.00,SSW,198,7.0,18.0,49,0.00,,,0.00,888.000000,,2013-07-05 20:53:00,
2013-07-05 16:01:00,84.0,63.0,-100.00,SSW,198,7.0,18.0,49,0.00,,,0.00,888.000000,,2013-07-05 21:01:00,
2013-07-05 16:34:00,83.0,62.0,-100.00,SSW,198,8.0,17.0,49,0.00,,,0.00,741.000000,,2013-07-05 21:34:00,
2013-07-05 16:43:00,83.0,62.0,-100.00,SSW,198,8.0,17.0,49,0.00,,,0.00,741.000000,,2013-07-05 21:43:00,
2013-07-05 16:53:00,83.0,62.0,-100.00,SSW,198,8.0,17.0,49,0.00,,,0.00,741.000000,,2013-07-05 21:53:00,
2013-07-05 17:02:00,83.0,62.0,-100.00,SSW,198,8.0,17.0,49,0.00,,,0.00,741.000000,,2013-07-05 22:02:00,
2013-07-05 17:34:00,82.0,64.0,-100.00,SW,232,4.0,12.0,54,0.00,,,0.00,269.000000,,2013-07-05 22:34:00,
2013-07-05 17:43:00,82.0,64.0,-100.00,SW,232,4.0,12.0,54,0.00,,,0.00,269.000000,,2013-07-05 22:43:00,
2013-07-05 17:53:00,82.0,64.0,-100.00,SW,232,4.0,12.0,54,0.00,,,0.00,269.000000,,2013-07-05 22:53:00,
2013-07-05 18:02:00,82.0,64.0,-100.00,SW,232,4.0,12.0,54,0.00,,,0.00,269.000000,,2013-07-05 23:02:00,
2013-07-05 18:32:00,82.0,65.0,-100.00,SW,219,3.0,8.0,57,0.00,,,0.00,206.000000,,2013-07-05 23:32:00,
2013-07-05 18:43:00,82.0,65.0,-100.00,SW,219,3.0,8.0,57,0.00,,,0.00,206.000000,,2013-07-05 23:43:00,
2013-07-05 18:53:00,82.0,65.0,-100.00,SW,219,3.0,8.0,57,0.00,,,0.00,206.000000,,2013-07-05 23:53:00,
2013-07-05 19:01:00,82.0,65.0,-100.00,SW,219,3.0,8.0,57,0.00,,,0.00,206.000000,,2013-07-06 00:01:00,
2013-07-05 19:33:00,81.0,65.0,-100.00,SSW,196,4.0,6.0,59,0.00,,,0.00,190.000000,,2013-07-06 00:33:00,
2013-07-05 19:43:00,81.0,65.0,-100.00,SSW,196,4.0,6.0,59,0.00,,,0.00,190.000000,,2013-07-06 00:43:00,
2013-07-05 19:53:00,81.0,65.0,-100.00,SSW,196,4.0,6.0,59,0.00,,,0.00,190.000000,,2013-07-06 00:53:00,
2013-07-05 20:02:00,81.0,65.0,-100.00,SSW,196,4.0,6.0,59,0.00,,,0.00,190.000000,,2013-07-06 01:02:00,
2013-07-05 20:33:00,81.0,66.0,-100.00,South,182,2.0,5.0,61,0.00,,,0.00,214.000000,,2013-07-06 01:33:00,
2013-07-05 20:43:00,81.0,66.0,-100.00,South,182,2.0,5.0,61,0.00,,,0.00,214.000000,,2013-07-06 01:43:00,
2013-07-05 20:53:00,81.0,66.0,-100.00,South,182,2.0,5.0,61,0.00,,,0.00,214.000000,,2013-07-06 01:53:00,
2013-07-05 21:02:00,81.0,66.0,-100.00,South,182,2.0,5.0,61,0.00,,,0.00,214.000000,,2013-07-06 02:02:00,
2013-07-05 21:34:00,75.0,68.0,-100.00,ESE,107,0.0,3.0,78,0.00,,,0.00,45.000000,,2013-07-06 02:34:00,
2013-07-05 21:43:00,75.0,68.0,-100.00,ESE,107,0.0,3.0,78,0.00,,,0.00,45.000000,,2013-07-06 02:43:00,
2013-07-05 21:53:00,75.0,68.0,-100.00,ESE,107,0.0,3.0,78,0.00,,,0.00,45.000000,,2013-07-06 02:53:00,
2013-07-05 22:02:00,75.0,68.0,-100.00,ESE,107,0.0,3.0,78,0.00,,,0.00,45.000000,,2013-07-06 03:02:00,
2013-07-05 22:34:00,69.0,67.0,-100.00,NE,41,0.0,0.0,93,0.00,,,0.00,1.000000,,2013-07-06 03:34:00,
2013-07-05 22:43:00,69.0,67.0,-100.00,NE,41,0.0,0.0,93,0.00,,,0.00,1.000000,,2013-07-06 03:43:00,
2013-07-05 22:53:00,69.0,67.0,-100.00,NE,41,0.0,0.0,93,0.00,,,0.00,1.000000,,2013-07-06 03:53:00,
2013-07-05 23:02:00,69.0,67.0,-100.00,NE,41,0.0,0.0,93,0.00,,,0.00,1.000000,,2013-07-06 04:02:00,
2013-07-05 23:33:00,66.0,65.0,-100.00,East,84,1.0,2.0,95,0.00,,,0.00,0.000000,,2013-07-06 04:33:00,
2013-07-05 23:43:00,66.0,65.0,-100.00,East,84,1.0,2.0,95,0.00,,,0.00,0.000000,,2013-07-06 04:43:00,
2013-07-05 23:53:00,66.0,65.0,-100.00,East,84,1.0,2.0,95,0.00,,,0.00,0.000000,,2013-07-06 04:53:00,